createdAt,value
2023-05-10T00:01:04.796Z,36.30
2023-05-10T00:03:32.786Z,36.24
2023-05-10T00:06:00.762Z,36.25
2023-05-10T00:08:28.374Z,36.30
2023-05-10T00:10:56.229Z,36.23
2023-05-10T00:13:24.017Z,36.43
2023-05-10T00:15:51.812Z,36.38
2023-05-10T00:18:20.224Z,36.46
2023-05-10T00:20:49.698Z,36.42
2023-05-10T00:23:17.454Z,36.62
2023-05-10T00:25:45.179Z,36.55
2023-05-10T00:28:12.846Z,36.96
2023-05-10T00:30:40.603Z,36.85
2023-05-10T00:33:08.234Z,36.80
2023-05-10T00:35:35.962Z,36.87
2023-05-10T00:38:03.584Z,36.79
2023-05-10T00:40:31.551Z,36.88
2023-05-10T00:43:02.444Z,36.95
2023-05-10T00:45:33.676Z,37.01
2023-05-10T00:48:03.606Z,37.01
2023-05-10T00:50:33.565Z,37.41
2023-05-10T00:53:02.868Z,37.28
2023-05-10T00:55:31.987Z,37.34
2023-05-10T00:57:59.853Z,37.47
2023-05-10T01:00:27.595Z,37.45
2023-05-10T01:02:55.462Z,37.47
2023-05-10T01:05:23.874Z,37.54
2023-05-10T01:07:51.893Z,37.54
2023-05-10T01:10:20.322Z,37.75
2023-05-10T01:12:48.573Z,37.88
2023-05-10T01:15:18.256Z,37.93
2023-05-10T01:17:48.673Z,38.11
2023-05-10T01:20:17.009Z,38.19
2023-05-10T01:22:47.849Z,38.42
2023-05-10T01:25:31.394Z,38.32
2023-05-10T01:28:02.127Z,38.50
2023-05-10T01:30:59.573Z,38.57
2023-05-10T01:33:41.872Z,39.28
2023-05-10T01:36:20.534Z,39.11
2023-05-10T01:38:52.718Z,39.24
2023-05-10T01:41:26.838Z,38.99
2023-05-10T01:43:55.900Z,39.37
2023-05-10T01:46:42.789Z,39.31
2023-05-10T01:49:19.879Z,39.29
2023-05-10T01:51:54.737Z,39.23
2023-05-10T01:54:24.714Z,39.28
2023-05-10T01:56:59.588Z,39.28
2023-05-10T01:59:31.820Z,39.32
2023-05-10T02:02:00.862Z,39.21
2023-05-10T02:04:29.653Z,39.29
2023-05-10T02:06:58.521Z,39.29
2023-05-10T02:09:28.454Z,39.23
2023-05-10T02:11:57.721Z,39.50
2023-05-10T02:14:28.076Z,39.48
2023-05-10T02:16:57.946Z,39.63
2023-05-10T02:19:27.427Z,39.62
2023-05-10T02:21:56.810Z,39.68
2023-05-10T02:24:26.139Z,39.77
2023-05-10T02:26:58.803Z,39.67
2023-05-10T02:29:28.259Z,39.81
2023-05-10T02:31:57.781Z,39.97
2023-05-10T02:34:28.511Z,40.07
2023-05-10T02:36:57.757Z,40.03
2023-05-10T02:39:29.506Z,40.00
2023-05-10T02:41:59.344Z,40.05
2023-05-10T02:44:29.758Z,40.07
2023-05-10T02:46:58.909Z,40.28
2023-05-10T02:49:26.711Z,40.27
2023-05-10T02:52:03.435Z,40.12
2023-05-10T02:54:38.598Z,40.43
2023-05-10T02:57:07.152Z,40.32
2023-05-10T02:59:35.146Z,40.27
2023-05-10T03:02:03.219Z,40.28
2023-05-10T03:04:31.142Z,40.26
2023-05-10T03:07:00.119Z,40.26
2023-05-10T03:09:28.387Z,40.12
2023-05-10T03:12:11.958Z,40.38
2023-05-10T03:14:55.752Z,40.31
2023-05-10T03:17:30.548Z,40.57
2023-05-10T03:20:10.714Z,40.44
2023-05-10T03:22:50.772Z,40.53
2023-05-10T03:25:22.372Z,40.58
2023-05-10T03:27:51.135Z,40.66
2023-05-10T03:30:20.421Z,40.75
2023-05-10T03:32:48.287Z,40.84
2023-05-10T03:35:17.724Z,40.91
2023-05-10T03:37:45.664Z,40.56
2023-05-10T03:40:14.497Z,40.79
2023-05-10T03:42:43.457Z,40.86
2023-05-10T03:45:11.480Z,40.93
2023-05-10T03:47:39.427Z,40.86
2023-05-10T03:50:08.089Z,41.06
2023-05-10T03:52:35.927Z,41.11
2023-05-10T03:55:04.556Z,40.99
2023-05-10T03:57:32.219Z,40.98
2023-05-10T03:59:59.893Z,41.02
2023-05-10T04:02:28.198Z,41.06
2023-05-10T04:04:56.209Z,41.14
2023-05-10T04:07:23.860Z,41.19
2023-05-10T04:09:51.496Z,41.19
2023-05-10T04:12:19.201Z,41.12
2023-05-10T04:14:46.795Z,41.25
2023-05-10T04:17:14.493Z,41.21
2023-05-10T04:19:42.263Z,41.25
2023-05-10T04:22:09.894Z,41.24
2023-05-10T04:24:37.534Z,41.18
2023-05-10T04:27:05.236Z,41.22
2023-05-10T04:29:32.841Z,41.37
2023-05-10T04:32:00.428Z,41.36
2023-05-10T04:34:28.268Z,41.43
2023-05-10T04:36:56.125Z,41.48
2023-05-10T04:39:23.788Z,41.49
2023-05-10T04:41:51.409Z,41.50
2023-05-10T04:44:19.017Z,41.38
2023-05-10T04:46:47.133Z,41.53
2023-05-10T04:49:15.423Z,41.53
2023-05-10T04:51:43.063Z,41.61
2023-05-10T04:54:11.205Z,41.39
2023-05-10T04:56:38.797Z,41.50
2023-05-10T04:59:06.401Z,41.56
2023-05-10T05:01:34.223Z,41.68
2023-05-10T05:04:02.406Z,41.85
2023-05-10T05:06:30.218Z,41.59
2023-05-10T05:08:57.835Z,41.65
2023-05-10T05:11:26.492Z,41.52
2023-05-10T05:13:54.459Z,41.59
2023-05-10T05:16:22.408Z,41.48
2023-05-10T05:18:51.367Z,41.46
2023-05-10T05:21:21.015Z,41.40
2023-05-10T05:23:48.712Z,41.46
2023-05-10T05:26:16.972Z,41.50
2023-05-10T05:28:47.314Z,41.11
2023-05-10T05:31:15.898Z,41.18
2023-05-10T05:33:43.652Z,41.13
2023-05-10T05:36:11.330Z,41.16
2023-05-10T05:38:38.947Z,41.33
2023-05-10T05:41:06.795Z,41.29
2023-05-10T05:43:38.468Z,41.19
2023-05-10T05:46:06.629Z,41.04
2023-05-10T05:48:34.283Z,41.06
2023-05-10T05:51:02.525Z,40.97
2023-05-10T05:53:30.157Z,40.98
2023-05-10T05:55:59.717Z,41.03
2023-05-10T05:58:28.619Z,41.00
2023-05-10T06:01:11.730Z,41.03
2023-05-10T06:03:39.595Z,41.10
2023-05-10T06:06:08.575Z,41.04
2023-05-10T06:08:36.912Z,40.84
2023-05-10T06:11:05.135Z,40.76
2023-05-10T06:13:34.257Z,40.74
2023-05-10T06:16:04.159Z,40.57
2023-05-10T06:18:32.433Z,40.48
2023-05-10T06:21:00.699Z,40.38
2023-05-10T06:23:28.403Z,40.25
2023-05-10T06:25:56.040Z,40.55
2023-05-10T06:28:23.708Z,40.66
2023-05-10T06:30:51.673Z,40.49
2023-05-10T06:33:19.617Z,40.49
2023-05-10T06:35:52.509Z,40.07
2023-05-10T06:38:20.893Z,40.05
2023-05-10T06:40:48.907Z,40.15
2023-05-10T06:43:17.247Z,40.23
2023-05-10T06:45:46.512Z,39.84
2023-05-10T06:48:14.533Z,39.84
2023-05-10T06:50:43.426Z,39.88
2023-05-10T06:53:12.741Z,39.67
2023-05-10T06:55:40.710Z,39.31
2023-05-10T06:58:08.326Z,39.36
2023-05-10T07:00:36.109Z,39.63
2023-05-10T07:03:05.626Z,39.49
2023-05-10T07:05:34.936Z,39.40
2023-05-10T07:08:02.896Z,39.29
2023-05-10T07:10:30.802Z,39.28
2023-05-10T07:12:58.560Z,39.21
2023-05-10T07:15:26.280Z,38.84
2023-05-10T07:17:55.007Z,38.55
2023-05-10T07:20:22.927Z,38.56
2023-05-10T07:22:50.891Z,38.38
2023-05-10T07:25:19.035Z,38.27
2023-05-10T07:27:49.238Z,38.34
2023-05-10T07:30:16.923Z,38.25
2023-05-10T07:32:44.618Z,38.03
2023-05-10T07:35:12.385Z,37.77
2023-05-10T07:37:40.450Z,37.50
2023-05-10T07:40:09.643Z,37.31
2023-05-10T07:42:40.587Z,37.54
2023-05-10T07:45:09.542Z,37.39
2023-05-10T07:47:37.343Z,37.07
2023-05-10T07:50:09.868Z,37.03
2023-05-10T07:52:40.358Z,36.78
2023-05-10T07:55:11.266Z,36.44
2023-05-10T07:57:40.110Z,36.26
2023-05-10T08:00:11.050Z,36.32
2023-05-10T08:02:45.784Z,36.28
2023-05-10T08:05:18.485Z,35.82
2023-05-10T08:07:47.904Z,35.90
2023-05-10T08:10:18.647Z,35.91
2023-05-10T08:12:49.232Z,35.68
2023-05-10T08:15:17.583Z,35.83
2023-05-10T08:17:47.558Z,35.35
2023-05-10T08:20:21.041Z,35.29
2023-05-10T08:22:52.029Z,34.97
2023-05-10T08:25:21.448Z,34.86
2023-05-10T08:27:49.264Z,34.79
2023-05-10T08:30:21.782Z,34.63
2023-05-10T08:32:51.397Z,34.57
2023-05-10T08:35:25.527Z,34.71
2023-05-10T08:37:56.756Z,34.73
2023-05-10T08:40:29.690Z,34.32
2023-05-10T08:43:08.248Z,33.63
2023-05-10T08:45:43.985Z,33.87
2023-05-10T08:48:12.796Z,33.54
2023-05-10T08:50:43.558Z,33.25
2023-05-10T08:53:14.004Z,33.72
2023-05-10T08:55:43.244Z,33.44
2023-05-10T08:58:15.402Z,33.52
2023-05-10T09:00:44.905Z,33.19
2023-05-10T09:03:15.250Z,33.23
2023-05-10T09:05:46.609Z,33.02
2023-05-10T09:08:19.399Z,32.51
2023-05-10T09:10:53.824Z,32.75
2023-05-10T09:13:23.904Z,32.93
2023-05-10T09:15:52.900Z,32.93
2023-05-10T09:18:20.748Z,33.03
2023-05-10T09:20:49.559Z,33.05
2023-05-10T09:23:17.173Z,33.05
2023-05-10T09:25:44.776Z,32.91
2023-05-10T09:28:12.907Z,32.83
2023-05-10T09:30:41.269Z,32.79
2023-05-10T09:33:08.898Z,32.69
2023-05-10T09:35:39.739Z,32.37
2023-05-10T09:38:07.512Z,32.20
2023-05-10T09:40:36.200Z,32.56
2023-05-10T09:43:08.599Z,32.34
2023-05-10T09:45:38.685Z,32.09
2023-05-10T09:48:07.523Z,32.31
2023-05-10T09:50:35.624Z,31.65
2023-05-10T09:53:04.759Z,32.20
2023-05-10T09:55:50.171Z,32.46
2023-05-10T09:58:17.911Z,32.37
2023-05-10T10:00:48.468Z,32.41
2023-05-10T10:03:17.882Z,32.34
2023-05-10T10:05:47.065Z,32.12
2023-05-10T10:08:19.276Z,31.78
2023-05-10T10:10:47.639Z,31.26
2023-05-10T10:13:16.343Z,31.36
2023-05-10T10:15:45.411Z,31.48
2023-05-10T10:18:16.897Z,31.27
2023-05-10T10:20:44.954Z,30.98
2023-05-10T10:23:12.948Z,31.10
2023-05-10T10:25:41.659Z,31.28
2023-05-10T10:28:33.469Z,31.09
2023-05-10T10:31:14.756Z,30.99
2023-05-10T10:33:58.676Z,30.59
2023-05-10T10:36:32.781Z,30.01
2023-05-10T10:39:02.342Z,30.74
2023-05-10T10:41:31.613Z,30.63
2023-05-10T10:44:31.731Z,30.51
2023-05-10T10:47:27.771Z,29.99
2023-05-10T10:50:01.444Z,30.20
2023-05-10T10:52:39.200Z,30.48
2023-05-10T11:06:10.213Z,30.20
2023-05-10T11:09:41.238Z,30.02
2023-05-10T11:12:21.476Z,30.15
2023-05-10T11:14:52.389Z,30.16
2023-05-10T11:17:25.125Z,29.69
2023-05-10T11:20:14.971Z,30.04
2023-05-10T11:22:59.155Z,29.93
2023-05-10T11:25:29.426Z,29.95
2023-05-10T11:27:57.745Z,29.76
2023-05-10T11:30:25.934Z,29.31
2023-05-10T11:32:53.887Z,29.68
2023-05-10T11:35:21.591Z,29.63
2023-05-10T11:37:49.453Z,28.98
2023-05-10T11:40:17.289Z,29.18
2023-05-10T11:42:46.194Z,29.56
2023-05-10T11:45:13.850Z,28.68
2023-05-10T11:47:44.174Z,28.69
2023-05-10T11:50:12.257Z,28.54
2023-05-10T11:52:39.994Z,28.82
2023-05-10T11:55:08.179Z,28.97
2023-05-10T11:57:47.738Z,29.27
2023-05-10T12:00:16.413Z,28.99
2023-05-10T12:02:44.946Z,28.87
2023-05-10T12:05:15.988Z,28.74
2023-05-10T12:07:43.871Z,28.50
2023-05-10T12:10:18.410Z,28.26
2023-05-10T12:12:50.824Z,28.62
2023-05-10T12:15:28.506Z,28.29
2023-05-10T12:17:57.759Z,28.16
2023-05-10T12:20:28.730Z,27.66
2023-05-10T12:23:00.720Z,27.93
2023-05-10T12:25:37.084Z,27.63
2023-05-10T12:28:07.464Z,26.70
2023-05-10T12:30:36.693Z,27.07
2023-05-10T12:33:15.719Z,26.78
2023-05-10T12:35:52.185Z,26.28
2023-05-10T12:38:38.955Z,26.20
2023-05-10T12:41:09.036Z,24.36
2023-05-10T12:43:37.712Z,24.59
2023-05-10T12:46:09.873Z,23.10
2023-05-10T12:48:39.316Z,23.95
2023-05-10T12:51:12.712Z,24.62
2023-05-10T12:53:44.569Z,23.63
2023-05-10T12:56:13.396Z,23.23
2023-05-10T12:58:41.435Z,23.24
2023-05-10T13:01:09.827Z,22.87
2023-05-10T13:03:37.516Z,21.21
2023-05-10T13:06:05.922Z,21.20
2023-05-10T13:08:34.775Z,20.48
2023-05-10T13:11:03.978Z,19.14
2023-05-10T13:13:31.687Z,19.21
2023-05-10T13:15:59.322Z,19.17
2023-05-10T13:18:27.246Z,19.82
2023-05-10T13:20:55.782Z,19.59
2023-05-10T13:23:29.398Z,19.32
2023-05-10T13:25:57.192Z,17.84
2023-05-10T13:28:26.463Z,17.05
2023-05-10T13:30:54.120Z,17.09
2023-05-10T13:33:21.941Z,17.62
2023-05-10T13:35:49.631Z,17.70
2023-05-10T13:38:17.277Z,17.10
2023-05-10T13:40:44.884Z,16.85
2023-05-10T13:43:12.598Z,16.43
2023-05-10T13:45:40.217Z,15.65
2023-05-10T13:48:07.984Z,16.03
2023-05-10T13:50:35.820Z,15.50
2023-05-10T13:53:03.573Z,16.06
2023-05-10T13:56:19.239Z,15.14
2023-05-10T13:59:04.071Z,14.13
2023-05-10T14:01:32.119Z,14.63
2023-05-10T14:04:01.369Z,13.93
2023-05-10T14:06:29.496Z,14.31
2023-05-10T14:08:57.825Z,14.33
2023-05-10T14:11:25.823Z,13.99
2023-05-10T14:13:54.217Z,13.74
2023-05-10T14:16:22.864Z,13.74
2023-05-10T14:18:50.749Z,13.81
2023-05-10T14:21:18.559Z,13.66
2023-05-10T14:23:46.220Z,13.13
2023-05-10T14:26:13.833Z,12.91
2023-05-10T14:28:41.538Z,12.68
2023-05-10T14:31:09.357Z,12.96
2023-05-10T14:33:36.965Z,12.46
2023-05-10T14:36:04.902Z,12.60
2023-05-10T14:38:32.529Z,12.42
2023-05-10T14:41:00.332Z,12.56
2023-05-10T14:43:28.975Z,12.57
2023-05-10T14:45:56.861Z,12.46
2023-05-10T14:48:24.688Z,12.46
2023-05-10T14:50:53.484Z,12.49
2023-05-10T14:53:38.427Z,12.30
2023-05-10T14:56:06.499Z,12.39
2023-05-10T14:58:34.578Z,12.70
2023-05-10T15:01:03.783Z,12.39
2023-05-10T15:03:32.403Z,11.96
2023-05-10T15:06:00.835Z,12.08
2023-05-10T15:08:29.057Z,12.33
2023-05-10T15:10:57.186Z,12.44
2023-05-10T15:13:25.344Z,12.08
2023-05-10T15:15:53.230Z,12.25
2023-05-10T15:18:21.129Z,12.52
2023-05-10T15:20:48.812Z,12.17
2023-05-10T15:23:16.520Z,12.41
2023-05-10T15:25:44.154Z,12.35
2023-05-10T15:28:11.749Z,12.28
2023-05-10T15:30:39.572Z,12.20
2023-05-10T15:33:08.586Z,12.26
2023-05-10T15:35:39.217Z,12.31
2023-05-10T15:38:07.039Z,12.23
2023-05-10T15:40:34.690Z,12.29
2023-05-10T15:43:02.412Z,12.35
2023-05-10T15:45:30.318Z,12.55
2023-05-10T15:47:59.826Z,12.70
2023-05-10T15:50:28.014Z,12.44
2023-05-10T15:52:55.728Z,12.56
2023-05-10T15:55:23.346Z,12.72
2023-05-10T15:57:51.308Z,12.84
2023-05-10T16:00:19.132Z,12.72
2023-05-10T16:02:46.801Z,12.70
2023-05-10T16:05:14.705Z,12.87
2023-05-10T16:07:42.825Z,12.88
2023-05-10T16:10:11.425Z,12.79
2023-05-10T16:12:39.538Z,12.89
2023-05-10T16:15:08.785Z,13.16
2023-05-10T16:17:37.431Z,13.01
2023-05-10T16:20:06.838Z,13.11
2023-05-10T16:22:36.252Z,13.11
2023-05-10T16:25:04.607Z,13.15
2023-05-10T16:27:33.436Z,13.39
2023-05-10T16:30:01.048Z,13.36
2023-05-10T16:32:28.696Z,13.39
2023-05-10T16:34:56.389Z,13.64
2023-05-10T16:37:24.085Z,13.82
2023-05-10T16:39:52.146Z,13.89
2023-05-10T16:42:19.792Z,13.95
2023-05-10T16:44:47.701Z,14.00
2023-05-10T16:47:15.328Z,14.20
2023-05-10T16:49:42.966Z,14.55
2023-05-10T16:52:10.985Z,14.58
2023-05-10T16:54:38.617Z,14.49
2023-05-10T16:57:06.705Z,14.77
2023-05-10T16:59:34.516Z,15.24
2023-05-10T17:02:02.213Z,15.37
2023-05-10T17:04:29.908Z,15.31
2023-05-10T17:06:57.638Z,15.71
2023-05-10T17:09:25.255Z,16.11
2023-05-10T17:11:52.849Z,16.07
2023-05-10T17:14:20.574Z,16.31
2023-05-10T17:16:48.369Z,16.97
2023-05-10T17:19:16.712Z,17.51
2023-05-10T17:21:44.524Z,17.68
2023-05-10T17:24:12.211Z,18.11
2023-05-10T17:26:39.884Z,18.49
2023-05-10T17:29:07.895Z,18.30
2023-05-10T17:31:35.566Z,18.80
2023-05-10T17:34:05.413Z,18.90
2023-05-10T17:36:34.333Z,19.26
2023-05-10T17:39:01.995Z,19.51
2023-05-10T17:41:29.644Z,19.53
2023-05-10T17:43:57.268Z,20.03
2023-05-10T17:46:24.934Z,19.94
2023-05-10T17:48:52.951Z,20.02
2023-05-10T17:51:20.583Z,20.15
2023-05-10T17:53:48.197Z,20.35
2023-05-10T17:56:16.223Z,20.66
2023-05-10T17:58:44.081Z,21.09
2023-05-10T18:01:12.096Z,21.23
2023-05-10T18:03:39.974Z,21.33
2023-05-10T18:06:07.673Z,21.91
2023-05-10T18:08:35.472Z,21.87
2023-05-10T18:11:03.268Z,21.87
2023-05-10T18:13:31.034Z,22.02
2023-05-10T18:15:59.322Z,22.14
2023-05-10T18:18:27.308Z,22.23
2023-05-10T18:20:57.617Z,22.55
2023-05-10T18:23:26.273Z,22.71
2023-05-10T18:25:54.127Z,22.93
2023-05-10T18:28:21.908Z,23.15
2023-05-10T18:30:49.667Z,23.28
2023-05-10T18:33:17.564Z,23.50
2023-05-10T18:35:45.312Z,23.72
2023-05-10T18:38:13.605Z,23.76
2023-05-10T18:40:41.997Z,23.93
2023-05-10T18:43:09.675Z,24.18
2023-05-10T18:45:38.953Z,24.27
2023-05-10T18:48:07.807Z,24.40
2023-05-10T18:50:35.588Z,24.59
2023-05-10T18:53:03.367Z,24.86
2023-05-10T18:55:31.216Z,24.82
2023-05-10T18:57:58.880Z,24.92
2023-05-10T19:00:26.635Z,25.14
2023-05-10T19:02:54.323Z,25.16
2023-05-10T19:05:27.094Z,25.26
2023-05-10T19:07:54.684Z,25.47
2023-05-10T19:10:22.465Z,25.61
2023-05-10T19:12:50.597Z,25.77
2023-05-10T19:15:20.160Z,25.94
2023-05-10T19:17:49.409Z,26.13
2023-05-10T19:20:17.463Z,26.15
2023-05-10T19:23:02.231Z,26.19
2023-05-10T19:25:35.896Z,26.43
2023-05-10T19:28:03.745Z,26.43
2023-05-10T19:30:31.711Z,26.62
2023-05-10T19:32:59.436Z,26.69
2023-05-10T19:35:27.118Z,26.93
2023-05-10T19:37:54.749Z,26.99
2023-05-10T19:40:22.471Z,27.19
2023-05-10T19:42:50.420Z,27.15
2023-05-10T19:45:18.288Z,27.31
2023-05-10T19:47:46.415Z,27.47
2023-05-10T19:50:18.292Z,27.56
2023-05-10T19:52:46.221Z,27.61
2023-05-10T19:55:16.129Z,27.68
2023-05-10T19:57:45.291Z,27.82
2023-05-10T20:00:13.668Z,27.89
2023-05-10T20:02:41.250Z,27.82
2023-05-10T20:05:09.511Z,27.96
2023-05-10T20:07:37.327Z,27.98
2023-05-10T20:10:05.539Z,27.89
2023-05-10T20:12:33.168Z,27.88
2023-05-10T20:15:00.767Z,28.09
2023-05-10T20:17:28.459Z,28.15
2023-05-10T20:19:56.133Z,28.18
2023-05-10T20:22:23.781Z,28.39
2023-05-10T20:24:53.241Z,28.22
2023-05-10T20:27:22.810Z,28.41
2023-05-10T20:29:50.485Z,28.32
2023-05-10T20:32:18.093Z,28.51
2023-05-10T20:34:45.733Z,28.55
2023-05-10T20:37:13.362Z,28.52
2023-05-10T20:39:41.080Z,28.73
2023-05-10T20:42:08.941Z,28.65
2023-05-10T20:44:36.558Z,28.75
2023-05-10T20:47:04.574Z,28.78
2023-05-10T20:49:32.492Z,28.95
2023-05-10T20:52:00.308Z,29.04
2023-05-10T20:54:28.396Z,29.02
2023-05-10T20:56:56.090Z,28.98
2023-05-10T20:59:23.764Z,29.21
2023-05-10T21:01:51.412Z,29.24
2023-05-10T21:04:19.243Z,29.26
2023-05-10T21:06:46.832Z,29.38
2023-05-10T21:09:14.679Z,29.46
2023-05-10T21:11:42.386Z,29.54
2023-05-10T21:14:10.542Z,29.66
2023-05-10T21:16:38.219Z,29.69
2023-05-10T21:19:07.638Z,29.76
2023-05-10T21:21:35.554Z,29.88
2023-05-10T21:24:03.751Z,29.87
2023-05-10T21:26:31.434Z,29.96
2023-05-10T21:28:59.279Z,30.08
2023-05-10T21:31:26.911Z,30.10
2023-05-10T21:33:54.493Z,30.20
2023-05-10T21:36:22.189Z,30.40
2023-05-10T21:38:50.546Z,30.56
2023-05-10T21:41:18.607Z,30.66
2023-05-10T21:43:46.243Z,30.66
2023-05-10T21:46:14.294Z,30.77
2023-05-10T21:48:42.084Z,30.80
2023-05-10T21:51:09.712Z,30.88
2023-05-10T21:53:38.909Z,31.03
2023-05-10T21:56:07.356Z,31.19
2023-05-10T21:58:35.213Z,31.16
2023-05-10T22:01:03.234Z,31.17
2023-05-10T22:03:31.149Z,31.20
2023-05-10T22:05:58.863Z,31.15
2023-05-10T22:08:26.609Z,31.34
2023-05-10T22:10:54.529Z,31.36
2023-05-10T22:13:22.165Z,31.49
2023-05-10T22:15:50.081Z,31.54
2023-05-10T22:18:17.740Z,31.58
2023-05-10T22:20:46.438Z,31.78
2023-05-10T22:23:14.066Z,31.71
2023-05-10T22:25:41.858Z,31.91
2023-05-10T22:28:10.384Z,31.84
2023-05-10T22:30:38.057Z,32.01
2023-05-10T22:33:06.422Z,32.09
2023-05-10T22:35:34.236Z,32.26
2023-05-10T22:38:02.029Z,32.41
2023-05-10T22:40:29.656Z,32.33
2023-05-10T22:42:57.248Z,32.40
2023-05-10T22:45:25.630Z,32.63
2023-05-10T22:47:53.643Z,32.73
2023-05-10T22:50:21.501Z,32.69
2023-05-10T22:52:49.153Z,32.74
2023-05-10T22:55:17.270Z,32.75
2023-05-10T22:57:44.942Z,32.94
2023-05-10T23:00:13.469Z,32.92
2023-05-10T23:02:41.702Z,33.03
2023-05-10T23:05:09.839Z,33.05
2023-05-10T23:07:38.050Z,33.34
2023-05-10T23:10:06.338Z,33.27
2023-05-10T23:12:34.653Z,33.46
2023-05-10T23:15:02.361Z,33.32
2023-05-10T23:17:30.032Z,33.56
2023-05-10T23:19:57.903Z,33.49
2023-05-10T23:22:25.550Z,33.42
2023-05-10T23:24:53.190Z,33.62
2023-05-10T23:27:20.875Z,33.68
2023-05-10T23:29:52.165Z,33.70
2023-05-10T23:32:19.777Z,33.73
2023-05-10T23:34:47.403Z,33.71
2023-05-10T23:37:15.734Z,34.04
2023-05-10T23:39:43.324Z,34.18
2023-05-10T23:42:10.954Z,34.08
2023-05-10T23:44:38.658Z,34.21
2023-05-10T23:47:07.156Z,34.20
2023-05-10T23:49:34.986Z,34.27
2023-05-10T23:52:02.616Z,34.34
2023-05-10T23:54:30.546Z,34.51
2023-05-10T23:56:58.197Z,34.46
2023-05-10T23:59:25.785Z,34.92
